ANA409 RJTT-RJSK
Flight info
| Callsign | ANA409 |
|---|---|
| Flight time | 0h 49m |
| Altitude | 29000 |
| Route | AGRIS Y11 YTE Y32 CHOKA |
| Aircraft | A320/L-V/N |
Departure
| Time | 2026-04-20 12:31 |
|---|---|
| Airport | Tokyo Haneda International Airport (RJTT) |
Arrival
| Time | 2026-04-20 13:20 |
|---|---|
| Airport | Akita Airport (RJSK) |
| Time | Latitude | Longitude | Altitude | Speed | Heading |
|---|---|---|---|---|---|
| 2026-04-20 11:49 | 35.55505 | 139.78931 | 27 ft | 0 kts | 330° |
| 2026-04-20 12:22 | 35.55495 | 139.78938 | 46 ft | 4 kts | 330° |
| 2026-04-20 12:22 | 35.55471 | 139.78954 | 26 ft | 4 kts | 330° |
| 2026-04-20 12:22 | 35.55449 | 139.78970 | 26 ft | 4 kts | 322° |
| 2026-04-20 12:23 | 35.55437 | 139.78995 | 27 ft | 4 kts | 268° |
| 2026-04-20 12:23 | 35.55441 | 139.79027 | 27 ft | 4 kts | 254° |
| 2026-04-20 12:23 | 35.55444 | 139.79057 | 26 ft | 3 kts | 289° |
| 2026-04-20 12:23 | 35.55435 | 139.79083 | 30 ft | 4 kts | 309° |
| 2026-04-20 12:24 | 35.55415 | 139.79105 | 26 ft | 4 kts | 329° |
| 2026-04-20 12:24 | 35.55409 | 139.79110 | 26 ft | 0 kts | 330° |
| 2026-04-20 12:26 | 35.55411 | 139.79109 | 26 ft | 3 kts | 330° |
| 2026-04-20 12:27 | 35.55486 | 139.79114 | 25 ft | 14 kts | 47° |
| 2026-04-20 12:27 | 35.55560 | 139.79131 | 27 ft | 11 kts | 330° |
| 2026-04-20 12:27 | 35.55626 | 139.79083 | 29 ft | 11 kts | 331° |
| 2026-04-20 12:27 | 35.55687 | 139.79040 | 30 ft | 10 kts | 330° |
| 2026-04-20 12:28 | 35.55760 | 139.78989 | 30 ft | 15 kts | 330° |
| 2026-04-20 12:28 | 35.55864 | 139.78915 | 24 ft | 19 kts | 330° |
| 2026-04-20 12:28 | 35.55971 | 139.78839 | 24 ft | 17 kts | 330° |
| 2026-04-20 12:28 | 35.56054 | 139.78780 | 25 ft | 11 kts | 329° |
| 2026-04-20 12:29 | 35.56117 | 139.78764 | 23 ft | 9 kts | 34° |
| 2026-04-20 12:29 | 35.56155 | 139.78830 | 23 ft | 9 kts | 60° |
| 2026-04-20 12:29 | 35.56179 | 139.78881 | 26 ft | 5 kts | 60° |
| 2026-04-20 12:29 | 35.56188 | 139.78902 | 29 ft | 2 kts | 62° |
| 2026-04-20 12:30 | 35.56184 | 139.78938 | 26 ft | 4 kts | 127° |
| 2026-04-20 12:30 | 35.56140 | 139.78972 | 27 ft | 9 kts | 150° |
| 2026-04-20 12:30 | 35.56015 | 139.79061 | 27 ft | 51 kts | 150° |
| 2026-04-20 12:30 | 35.55717 | 139.79273 | 27 ft | 97 kts | 150° |
| 2026-04-20 12:31 | 35.54634 | 139.80035 | 154 ft | 157 kts | 151° |
| 2026-04-20 12:31 | 35.54023 | 139.80464 | 695 ft | 150 kts | 146° |
| 2026-04-20 12:31 | 35.53231 | 139.81300 | 1464 ft | 151 kts | 139° |
| 2026-04-20 12:31 | 35.52480 | 139.82236 | 2076 ft | 162 kts | 139° |
| 2026-04-20 12:32 | 35.51643 | 139.83293 | 2461 ft | 184 kts | 138° |
| 2026-04-20 12:32 | 35.50696 | 139.84485 | 2800 ft | 206 kts | 138° |
| 2026-04-20 12:32 | 35.49655 | 139.85792 | 3258 ft | 225 kts | 138° |
| 2026-04-20 12:32 | 35.48501 | 139.87233 | 3785 ft | 248 kts | 137° |
| 2026-04-20 12:33 | 35.47259 | 139.88785 | 4574 ft | 260 kts | 137° |
| 2026-04-20 12:33 | 35.46249 | 139.90669 | 5463 ft | 274 kts | 112° |
| 2026-04-20 12:33 | 35.46057 | 139.93015 | 6439 ft | 285 kts | 84° |
| 2026-04-20 12:33 | 35.46647 | 139.95357 | 7358 ft | 293 kts | 63° |
| 2026-04-20 12:34 | 35.47948 | 139.97285 | 8279 ft | 299 kts | 38° |
| 2026-04-20 12:34 | 35.49799 | 139.98477 | 9204 ft | 304 kts | 15° |
| 2026-04-20 12:34 | 35.51894 | 139.98828 | 10121 ft | 306 kts | 356° |
| 2026-04-20 12:34 | 35.54036 | 139.98404 | 10637 ft | 323 kts | 342° |
| 2026-04-20 12:35 | 35.56228 | 139.97632 | 11149 ft | 338 kts | 342° |
| 2026-04-20 12:35 | 35.58542 | 139.96824 | 11977 ft | 344 kts | 342° |
| 2026-04-20 12:35 | 35.60894 | 139.96199 | 12842 ft | 349 kts | 352° |
| 2026-04-20 12:35 | 35.63307 | 139.96156 | 13702 ft | 354 kts | 1° |
| 2026-04-20 12:36 | 35.65775 | 139.96328 | 14473 ft | 357 kts | 1° |
| 2026-04-20 12:36 | 35.68265 | 139.96499 | 14873 ft | 359 kts | 1° |
| 2026-04-20 12:36 | 35.70760 | 139.96666 | 15013 ft | 359 kts | 1° |
| 2026-04-20 12:36 | 35.73254 | 139.96583 | 15038 ft | 357 kts | 350° |
| 2026-04-20 12:37 | 35.75654 | 139.95890 | 15037 ft | 354 kts | 338° |
| 2026-04-20 12:37 | 35.77951 | 139.94808 | 15038 ft | 353 kts | 336° |
| 2026-04-20 12:37 | 35.80247 | 139.93721 | 15043 ft | 354 kts | 336° |
| 2026-04-20 12:37 | 35.82548 | 139.92643 | 15047 ft | 354 kts | 337° |
| 2026-04-20 12:38 | 35.84850 | 139.91569 | 15044 ft | 354 kts | 337° |
| 2026-04-20 12:38 | 35.87151 | 139.90491 | 15049 ft | 354 kts | 336° |
| 2026-04-20 12:38 | 35.89453 | 139.89409 | 15050 ft | 354 kts | 336° |
| 2026-04-20 12:38 | 35.91760 | 139.88321 | 15080 ft | 356 kts | 336° |
| 2026-04-20 12:39 | 35.96470 | 139.86279 | 16556 ft | 363 kts | 345° |
| 2026-04-20 12:39 | 35.99007 | 139.85963 | 17332 ft | 370 kts | 358° |
| 2026-04-20 12:39 | 36.01525 | 139.86339 | 18078 ft | 376 kts | 11° |
| 2026-04-20 12:40 | 36.04027 | 139.87374 | 18739 ft | 382 kts | 18° |
| 2026-04-20 12:40 | 36.06519 | 139.88549 | 19371 ft | 385 kts | 18° |
| 2026-04-20 12:40 | 36.09031 | 139.89735 | 19993 ft | 388 kts | 17° |
| 2026-04-20 12:40 | 36.11570 | 139.90932 | 20613 ft | 391 kts | 17° |
| 2026-04-20 12:41 | 36.14124 | 139.92129 | 21217 ft | 395 kts | 16° |
| 2026-04-20 12:41 | 36.16705 | 139.93332 | 21819 ft | 398 kts | 16° |
| 2026-04-20 12:41 | 36.19342 | 139.94355 | 22402 ft | 397 kts | 7° |
| 2026-04-20 12:41 | 36.22068 | 139.94793 | 22983 ft | 394 kts | 356° |
| 2026-04-20 12:42 | 36.24803 | 139.94754 | 23579 ft | 395 kts | 353° |
| 2026-04-20 12:42 | 36.27554 | 139.94672 | 24088 ft | 397 kts | 353° |
| 2026-04-20 12:42 | 36.30326 | 139.94590 | 24600 ft | 399 kts | 353° |
| 2026-04-20 12:42 | 36.33113 | 139.94507 | 25107 ft | 402 kts | 353° |
| 2026-04-20 12:43 | 36.35918 | 139.94425 | 25612 ft | 404 kts | 353° |
| 2026-04-20 12:43 | 36.38701 | 139.94346 | 26083 ft | 406 kts | 353° |
| 2026-04-20 12:43 | 36.41524 | 139.94265 | 26564 ft | 408 kts | 353° |
| 2026-04-20 12:43 | 36.44378 | 139.94240 | 27043 ft | 412 kts | 355° |
| 2026-04-20 12:44 | 36.47259 | 139.94321 | 27503 ft | 415 kts | 356° |
| 2026-04-20 12:44 | 36.50154 | 139.94469 | 27971 ft | 418 kts | 357° |
| 2026-04-20 12:44 | 36.53073 | 139.94645 | 28432 ft | 421 kts | 357° |
| 2026-04-20 12:44 | 36.56001 | 139.94817 | 28869 ft | 423 kts | 357° |
| 2026-04-20 12:45 | 36.58945 | 139.94975 | 29025 ft | 422 kts | 356° |
| 2026-04-20 12:45 | 36.61827 | 139.95121 | 29055 ft | 405 kts | 356° |
| 2026-04-20 12:45 | 36.64593 | 139.95252 | 29058 ft | 393 kts | 356° |
| 2026-04-20 12:46 | 36.70020 | 139.95475 | 29050 ft | 389 kts | 355° |
| 2026-04-20 12:46 | 36.75424 | 139.95691 | 29054 ft | 389 kts | 355° |
| 2026-04-20 12:47 | 36.80842 | 139.95919 | 29051 ft | 390 kts | 356° |
| 2026-04-20 12:47 | 36.86261 | 139.96148 | 29049 ft | 390 kts | 356° |
| 2026-04-20 12:48 | 36.91681 | 139.97253 | 29046 ft | 397 kts | 5° |
| 2026-04-20 12:48 | 36.97056 | 139.98636 | 29041 ft | 397 kts | 5° |
| 2026-04-20 12:49 | 37.02481 | 140.00042 | 29038 ft | 398 kts | 5° |
| 2026-04-20 12:49 | 37.07912 | 140.01439 | 29029 ft | 398 kts | 5° |
| 2026-04-20 12:50 | 37.13348 | 140.02836 | 29023 ft | 399 kts | 5° |
| 2026-04-20 12:50 | 37.18791 | 140.04238 | 29020 ft | 400 kts | 5° |
| 2026-04-20 12:51 | 37.24247 | 140.05650 | 29020 ft | 400 kts | 6° |
| 2026-04-20 12:51 | 37.29698 | 140.07070 | 29021 ft | 401 kts | 6° |
| 2026-04-20 12:52 | 37.35156 | 140.08489 | 29016 ft | 400 kts | 6° |
| 2026-04-20 12:52 | 37.40617 | 140.09907 | 29013 ft | 401 kts | 6° |
| 2026-04-20 12:53 | 37.45978 | 140.11295 | 29005 ft | 401 kts | 6° |
| 2026-04-20 12:53 | 37.51509 | 140.12733 | 29003 ft | 401 kts | 6° |
| 2026-04-20 12:54 | 37.56935 | 140.14156 | 29001 ft | 402 kts | 6° |
| 2026-04-20 12:54 | 37.62417 | 140.15591 | 28998 ft | 402 kts | 6° |
| 2026-04-20 12:55 | 37.67895 | 140.17031 | 28993 ft | 402 kts | 6° |
| 2026-04-20 12:55 | 37.73373 | 140.18465 | 28993 ft | 403 kts | 6° |
| 2026-04-20 12:56 | 37.78862 | 140.19899 | 28990 ft | 403 kts | 6° |
| 2026-04-20 12:56 | 37.84346 | 140.21341 | 28988 ft | 403 kts | 6° |
| 2026-04-20 12:57 | 37.89838 | 140.22791 | 28980 ft | 403 kts | 6° |
| 2026-04-20 12:57 | 37.95334 | 140.24241 | 28972 ft | 404 kts | 6° |
| 2026-04-20 12:58 | 38.00828 | 140.25687 | 28969 ft | 404 kts | 6° |
| 2026-04-20 12:58 | 38.06338 | 140.27145 | 28962 ft | 404 kts | 6° |
| 2026-04-20 12:59 | 38.11792 | 140.28591 | 28601 ft | 399 kts | 6° |
| 2026-04-20 12:59 | 38.14504 | 140.29311 | 28335 ft | 397 kts | 6° |
| 2026-04-20 12:59 | 38.17202 | 140.30028 | 28079 ft | 396 kts | 6° |
| 2026-04-20 12:59 | 38.19895 | 140.30745 | 27825 ft | 394 kts | 6° |
| 2026-04-20 13:00 | 38.22575 | 140.31456 | 27565 ft | 393 kts | 6° |
| 2026-04-20 13:00 | 38.25250 | 140.32167 | 27312 ft | 392 kts | 6° |
| 2026-04-20 13:00 | 38.27917 | 140.32879 | 27053 ft | 391 kts | 6° |
| 2026-04-20 13:00 | 38.30575 | 140.33586 | 26792 ft | 387 kts | 6° |
| 2026-04-20 13:01 | 38.33197 | 140.34286 | 26356 ft | 384 kts | 6° |
| 2026-04-20 13:01 | 38.35811 | 140.34984 | 25898 ft | 382 kts | 6° |
| 2026-04-20 13:01 | 38.38406 | 140.35539 | 25447 ft | 375 kts | 358° |
| 2026-04-20 13:01 | 38.40985 | 140.35522 | 25000 ft | 366 kts | 347° |
| 2026-04-20 13:02 | 38.43506 | 140.35165 | 24552 ft | 363 kts | 347° |
| 2026-04-20 13:02 | 38.46014 | 140.34814 | 24106 ft | 362 kts | 347° |
| 2026-04-20 13:02 | 38.48517 | 140.34470 | 23653 ft | 361 kts | 347° |
| 2026-04-20 13:02 | 38.51015 | 140.34130 | 23157 ft | 360 kts | 347° |
| 2026-04-20 13:03 | 38.53493 | 140.33793 | 22714 ft | 358 kts | 347° |
| 2026-04-20 13:03 | 38.55962 | 140.33455 | 22294 ft | 355 kts | 347° |
| 2026-04-20 13:03 | 38.58405 | 140.33119 | 21868 ft | 352 kts | 347° |
| 2026-04-20 13:03 | 38.60832 | 140.32786 | 21459 ft | 350 kts | 348° |
| 2026-04-20 13:04 | 38.63243 | 140.32455 | 21053 ft | 348 kts | 348° |
| 2026-04-20 13:04 | 38.65643 | 140.32125 | 20651 ft | 346 kts | 348° |
| 2026-04-20 13:04 | 38.68028 | 140.31794 | 20257 ft | 345 kts | 348° |
| 2026-04-20 13:04 | 38.70408 | 140.31462 | 19858 ft | 344 kts | 348° |
| 2026-04-20 13:05 | 38.72753 | 140.31137 | 19480 ft | 343 kts | 349° |
| 2026-04-20 13:05 | 38.75127 | 140.30808 | 19085 ft | 343 kts | 349° |
| 2026-04-20 13:05 | 38.77504 | 140.30479 | 18691 ft | 343 kts | 349° |
| 2026-04-20 13:05 | 38.79878 | 140.30153 | 18306 ft | 344 kts | 350° |
| 2026-04-20 13:06 | 38.82255 | 140.29827 | 17889 ft | 344 kts | 350° |
| 2026-04-20 13:06 | 38.84634 | 140.29498 | 17496 ft | 343 kts | 350° |
| 2026-04-20 13:06 | 38.87007 | 140.29168 | 17110 ft | 342 kts | 350° |
| 2026-04-20 13:06 | 38.89373 | 140.28839 | 16725 ft | 342 kts | 350° |
| 2026-04-20 13:07 | 38.91740 | 140.28513 | 16348 ft | 342 kts | 350° |
| 2026-04-20 13:07 | 38.94105 | 140.28186 | 15974 ft | 342 kts | 350° |
| 2026-04-20 13:07 | 38.96477 | 140.27858 | 15597 ft | 343 kts | 350° |
| 2026-04-20 13:07 | 38.98853 | 140.27527 | 15236 ft | 343 kts | 350° |
| 2026-04-20 13:08 | 39.01209 | 140.27200 | 14935 ft | 340 kts | 350° |
| 2026-04-20 13:08 | 39.03531 | 140.26875 | 14567 ft | 340 kts | 350° |
| 2026-04-20 13:08 | 39.05882 | 140.26547 | 14197 ft | 339 kts | 350° |
| 2026-04-20 13:08 | 39.08220 | 140.26221 | 13830 ft | 338 kts | 351° |
| 2026-04-20 13:09 | 39.10561 | 140.25896 | 13436 ft | 339 kts | 351° |
| 2026-04-20 13:09 | 39.12932 | 140.25566 | 13044 ft | 338 kts | 351° |
| 2026-04-20 13:09 | 39.15237 | 140.25244 | 12678 ft | 337 kts | 351° |
| 2026-04-20 13:09 | 39.17602 | 140.24910 | 12285 ft | 337 kts | 351° |
| 2026-04-20 13:10 | 39.19901 | 140.24588 | 11913 ft | 337 kts | 351° |
| 2026-04-20 13:10 | 39.22223 | 140.24262 | 11528 ft | 336 kts | 351° |
| 2026-04-20 13:10 | 39.24545 | 140.23935 | 11139 ft | 335 kts | 351° |
| 2026-04-20 13:10 | 39.26846 | 140.23547 | 10748 ft | 332 kts | 344° |
| 2026-04-20 13:11 | 39.28996 | 140.22623 | 10355 ft | 326 kts | 330° |
| 2026-04-20 13:11 | 39.30916 | 140.21096 | 9955 ft | 319 kts | 317° |
| 2026-04-20 13:11 | 39.32652 | 140.19361 | 9700 ft | 313 kts | 317° |
| 2026-04-20 13:11 | 39.34382 | 140.17641 | 9335 ft | 311 kts | 317° |
| 2026-04-20 13:12 | 39.36084 | 140.15951 | 8986 ft | 308 kts | 317° |
| 2026-04-20 13:12 | 39.37778 | 140.14268 | 8562 ft | 307 kts | 317° |
| 2026-04-20 13:12 | 39.39464 | 140.12592 | 8166 ft | 304 kts | 317° |
| 2026-04-20 13:12 | 39.41139 | 140.10927 | 7777 ft | 302 kts | 317° |
| 2026-04-20 13:13 | 39.42797 | 140.09280 | 7393 ft | 299 kts | 317° |
| 2026-04-20 13:13 | 39.44439 | 140.07645 | 6991 ft | 297 kts | 317° |
| 2026-04-20 13:13 | 39.46065 | 140.06023 | 6590 ft | 295 kts | 317° |
| 2026-04-20 13:13 | 39.47684 | 140.04408 | 6196 ft | 293 kts | 317° |
| 2026-04-20 13:14 | 39.49293 | 140.02805 | 5768 ft | 290 kts | 318° |
| 2026-04-20 13:14 | 39.50852 | 140.01247 | 5510 ft | 280 kts | 318° |
| 2026-04-20 13:14 | 39.52332 | 139.99774 | 5376 ft | 257 kts | 318° |
| 2026-04-20 13:14 | 39.53715 | 139.98450 | 5245 ft | 239 kts | 323° |
| 2026-04-20 13:15 | 39.55183 | 139.97527 | 4969 ft | 235 kts | 338° |
| 2026-04-20 13:15 | 39.56774 | 139.97077 | 4709 ft | 235 kts | 353° |
| 2026-04-20 13:15 | 39.58404 | 139.97125 | 4440 ft | 234 kts | 6° |
| 2026-04-20 13:15 | 39.60021 | 139.97374 | 4167 ft | 235 kts | 6° |
| 2026-04-20 13:16 | 39.61642 | 139.97932 | 3532 ft | 250 kts | 31° |
| 2026-04-20 13:16 | 39.62883 | 139.99505 | 2862 ft | 252 kts | 64° |
| 2026-04-20 13:16 | 39.63314 | 140.01594 | 2476 ft | 228 kts | 95° |
| 2026-04-20 13:16 | 39.63175 | 140.03501 | 2324 ft | 199 kts | 102° |
| 2026-04-20 13:17 | 39.63035 | 140.05179 | 2230 ft | 175 kts | 101° |
| 2026-04-20 13:17 | 39.62911 | 140.06681 | 2159 ft | 163 kts | 103° |
| 2026-04-20 13:17 | 39.62788 | 140.08114 | 2086 ft | 157 kts | 103° |
| 2026-04-20 13:17 | 39.62670 | 140.09484 | 1996 ft | 143 kts | 102° |
| 2026-04-20 13:18 | 39.62566 | 140.10704 | 1826 ft | 131 kts | 103° |
| 2026-04-20 13:18 | 39.62467 | 140.11835 | 1641 ft | 123 kts | 104° |
| 2026-04-20 13:18 | 39.62372 | 140.12899 | 1466 ft | 119 kts | 104° |
| 2026-04-20 13:18 | 39.62274 | 140.13960 | 1295 ft | 118 kts | 103° |
| 2026-04-20 13:19 | 39.62176 | 140.15033 | 1124 ft | 121 kts | 101° |
| 2026-04-20 13:19 | 39.62078 | 140.16115 | 955 ft | 120 kts | 100° |
| 2026-04-20 13:19 | 39.61980 | 140.17205 | 794 ft | 121 kts | 99° |
| 2026-04-20 13:19 | 39.61884 | 140.18283 | 613 ft | 120 kts | 98° |
| 2026-04-20 13:20 | 39.61795 | 140.19350 | 471 ft | 120 kts | 98° |
| 2026-04-20 13:20 | 39.61696 | 140.20428 | 361 ft | 121 kts | 99° |
| 2026-04-20 13:20 | 39.61602 | 140.21445 | 311 ft | 100 kts | 98° |
| 2026-04-20 13:20 | 39.61553 | 140.21959 | 308 ft | 19 kts | 96° |
| 2026-04-20 13:21 | 39.61539 | 140.22137 | 309 ft | 21 kts | 97° |
| 2026-04-20 13:21 | 39.61522 | 140.22309 | 309 ft | 19 kts | 98° |
| 2026-04-20 13:21 | 39.61504 | 140.22457 | 313 ft | 13 kts | 109° |
| 2026-04-20 13:21 | 39.61427 | 140.22492 | 313 ft | 14 kts | 186° |
| 2026-04-20 13:22 | 39.61357 | 140.22453 | 315 ft | 10 kts | 238° |
| 2026-04-20 13:22 | 39.61353 | 140.22371 | 314 ft | 10 kts | 276° |
| 2026-04-20 13:22 | 39.61360 | 140.22285 | 312 ft | 11 kts | 276° |
| 2026-04-20 13:22 | 39.61368 | 140.22194 | 312 ft | 10 kts | 276° |
| 2026-04-20 13:23 | 39.61375 | 140.22097 | 312 ft | 11 kts | 276° |
| 2026-04-20 13:23 | 39.61374 | 140.22034 | 312 ft | 4 kts | 237° |
| 2026-04-20 13:23 | 39.61370 | 140.22030 | 314 ft | 0 kts | 218° |
| 2026-04-20 13:23 | 39.61363 | 140.22029 | 314 ft | 0 kts | 192° |
| 2026-04-20 13:24 | 39.61340 | 140.22024 | 315 ft | 9 kts | 189° |
| 2026-04-20 13:24 | 39.61288 | 140.22015 | 315 ft | 5 kts | 186° |
| 2026-04-20 13:24 | 39.61257 | 140.22011 | 316 ft | 3 kts | 186° |
| 2026-04-20 13:24 | 39.61247 | 140.22009 | 316 ft | 1 kts | 186° |